WMT1983 LIPX-LATI
Flight info
| Callsign | WMT1983 |
|---|---|
| Flight time | 1h 13m |
| Altitude | 35000 |
| Route | OTZOM Y480 UPXUF L612 ADOSA DCT BORMI DCT LABIN DCT PETAK |
| Aircraft | A321/M-SDE3FGHIRWY/LB1 |
Departure
| Time | 2026-04-26 16:27 |
|---|---|
| Airport | Verona Villafranca Valerio Catullo Airport (LIPX) |
Arrival
| Time | 2026-04-26 17:40 |
|---|---|
| Airport | Tirana International Airport Mother Teresa (LATI) |
| Time | Latitude | Longitude | Altitude | Speed | Heading |
|---|---|---|---|---|---|
| 2026-04-26 15:54 | 45.40186 | 10.90428 | 242 ft | 0 kts | 180° |
| 2026-04-26 16:19 | 45.40220 | 10.90414 | 242 ft | 3 kts | 160° |
| 2026-04-26 16:19 | 45.40240 | 10.90407 | 242 ft | 4 kts | 192° |
| 2026-04-26 16:19 | 45.40276 | 10.90444 | 242 ft | 2 kts | 225° |
| 2026-04-26 16:20 | 45.40262 | 10.90422 | 242 ft | 4 kts | 231° |
| 2026-04-26 16:20 | 45.40271 | 10.90360 | 242 ft | 3 kts | 315° |
| 2026-04-26 16:20 | 45.40282 | 10.90345 | 242 ft | 0 kts | 315° |
| 2026-04-26 16:22 | 45.40290 | 10.90333 | 242 ft | 3 kts | 315° |
| 2026-04-26 16:23 | 45.40321 | 10.90302 | 242 ft | 7 kts | 344° |
| 2026-04-26 16:23 | 45.40364 | 10.90333 | 242 ft | 8 kts | 45° |
| 2026-04-26 16:23 | 45.40403 | 10.90388 | 242 ft | 8 kts | 44° |
| 2026-04-26 16:23 | 45.40445 | 10.90448 | 242 ft | 9 kts | 45° |
| 2026-04-26 16:24 | 45.40490 | 10.90514 | 242 ft | 10 kts | 45° |
| 2026-04-26 16:24 | 45.40538 | 10.90584 | 242 ft | 10 kts | 45° |
| 2026-04-26 16:24 | 45.40586 | 10.90645 | 242 ft | 8 kts | 28° |
| 2026-04-26 16:24 | 45.40630 | 10.90619 | 244 ft | 6 kts | 298° |
| 2026-04-26 16:25 | 45.40632 | 10.90568 | 245 ft | 4 kts | 263° |
| 2026-04-26 16:25 | 45.40625 | 10.90528 | 246 ft | 6 kts | 255° |
| 2026-04-26 16:25 | 45.40618 | 10.90463 | 247 ft | 6 kts | 276° |
| 2026-04-26 16:25 | 45.40630 | 10.90412 | 248 ft | 5 kts | 269° |
| 2026-04-26 16:26 | 45.40607 | 10.90362 | 247 ft | 8 kts | 226° |
| 2026-04-26 16:26 | 45.40498 | 10.90202 | 246 ft | 52 kts | 226° |
| 2026-04-26 16:26 | 45.40077 | 10.89592 | 245 ft | 118 kts | 226° |
| 2026-04-26 16:26 | 45.39373 | 10.88568 | 252 ft | 168 kts | 225° |
| 2026-04-26 16:27 | 45.38569 | 10.87387 | 887 ft | 164 kts | 224° |
| 2026-04-26 16:27 | 45.37768 | 10.86207 | 1487 ft | 168 kts | 225° |
| 2026-04-26 16:27 | 45.36951 | 10.84998 | 2057 ft | 175 kts | 225° |
| 2026-04-26 16:27 | 45.36146 | 10.83571 | 2296 ft | 196 kts | 242° |
| 2026-04-26 16:28 | 45.35616 | 10.81692 | 2558 ft | 213 kts | 249° |
| 2026-04-26 16:28 | 45.35048 | 10.79657 | 2744 ft | 233 kts | 248° |
| 2026-04-26 16:28 | 45.34392 | 10.77410 | 2888 ft | 258 kts | 241° |
| 2026-04-26 16:28 | 45.33141 | 10.75598 | 3440 ft | 263 kts | 205° |
| 2026-04-26 16:29 | 45.31354 | 10.75111 | 4057 ft | 266 kts | 171° |
| 2026-04-26 16:29 | 45.29689 | 10.76142 | 4796 ft | 266 kts | 137° |
| 2026-04-26 16:29 | 45.28690 | 10.78327 | 5386 ft | 269 kts | 104° |
| 2026-04-26 16:29 | 45.28662 | 10.80977 | 6051 ft | 272 kts | 80° |
| 2026-04-26 16:30 | 45.29166 | 10.83576 | 6734 ft | 275 kts | 72° |
| 2026-04-26 16:30 | 45.29782 | 10.86170 | 7351 ft | 279 kts | 71° |
| 2026-04-26 16:30 | 45.30370 | 10.88819 | 7988 ft | 283 kts | 73° |
| 2026-04-26 16:30 | 45.30893 | 10.91533 | 8670 ft | 286 kts | 76° |
| 2026-04-26 16:31 | 45.31339 | 10.94255 | 9363 ft | 288 kts | 78° |
| 2026-04-26 16:31 | 45.31743 | 10.97053 | 10035 ft | 291 kts | 78° |
| 2026-04-26 16:31 | 45.32121 | 10.99898 | 10630 ft | 294 kts | 79° |
| 2026-04-26 16:31 | 45.32484 | 11.02776 | 11220 ft | 298 kts | 79° |
| 2026-04-26 16:32 | 45.32850 | 11.05688 | 11820 ft | 301 kts | 79° |
| 2026-04-26 16:32 | 45.33100 | 11.07675 | 12241 ft | 303 kts | 79° |
| 2026-04-26 16:32 | 45.33408 | 11.11647 | 13023 ft | 309 kts | 92° |
| 2026-04-26 16:32 | 45.33106 | 11.14740 | 13291 ft | 326 kts | 103° |
| 2026-04-26 16:33 | 45.32551 | 11.17956 | 13436 ft | 345 kts | 103° |
| 2026-04-26 16:33 | 45.31965 | 11.21351 | 13574 ft | 363 kts | 103° |
| 2026-04-26 16:33 | 45.31357 | 11.24912 | 13730 ft | 379 kts | 103° |
| 2026-04-26 16:33 | 45.30728 | 11.28599 | 14163 ft | 386 kts | 103° |
| 2026-04-26 16:34 | 45.30094 | 11.32323 | 14677 ft | 390 kts | 103° |
| 2026-04-26 16:34 | 45.29455 | 11.36090 | 15227 ft | 394 kts | 103° |
| 2026-04-26 16:34 | 45.28814 | 11.39890 | 15759 ft | 397 kts | 103° |
| 2026-04-26 16:34 | 45.28170 | 11.43710 | 16294 ft | 400 kts | 103° |
| 2026-04-26 16:35 | 45.27516 | 11.47573 | 16824 ft | 404 kts | 103° |
| 2026-04-26 16:35 | 45.26853 | 11.51465 | 17361 ft | 407 kts | 103° |
| 2026-04-26 16:35 | 45.26179 | 11.55390 | 17883 ft | 411 kts | 103° |
| 2026-04-26 16:35 | 45.25496 | 11.59345 | 18408 ft | 414 kts | 104° |
| 2026-04-26 16:36 | 45.24803 | 11.63327 | 18877 ft | 417 kts | 103° |
| 2026-04-26 16:36 | 45.24106 | 11.67338 | 19349 ft | 419 kts | 103° |
| 2026-04-26 16:36 | 45.23412 | 11.71366 | 19792 ft | 422 kts | 103° |
| 2026-04-26 16:36 | 45.22709 | 11.75422 | 20231 ft | 424 kts | 103° |
| 2026-04-26 16:37 | 45.21997 | 11.79495 | 20678 ft | 426 kts | 103° |
| 2026-04-26 16:37 | 45.21280 | 11.83590 | 21099 ft | 429 kts | 103° |
| 2026-04-26 16:37 | 45.20555 | 11.87714 | 21516 ft | 433 kts | 103° |
| 2026-04-26 16:37 | 45.20073 | 11.90459 | 21779 ft | 434 kts | 103° |
| 2026-04-26 16:38 | 45.19092 | 11.96040 | 22307 ft | 438 kts | 104° |
| 2026-04-26 16:38 | 45.18352 | 12.00232 | 22707 ft | 440 kts | 104° |
| 2026-04-26 16:38 | 45.17610 | 12.04452 | 23100 ft | 442 kts | 103° |
| 2026-04-26 16:38 | 45.16869 | 12.08696 | 23450 ft | 445 kts | 103° |
| 2026-04-26 16:39 | 45.16119 | 12.12959 | 23790 ft | 448 kts | 103° |
| 2026-04-26 16:39 | 45.15358 | 12.17243 | 24116 ft | 450 kts | 103° |
| 2026-04-26 16:39 | 45.14588 | 12.21554 | 24438 ft | 452 kts | 103° |
| 2026-04-26 16:39 | 45.13815 | 12.25878 | 24744 ft | 455 kts | 103° |
| 2026-04-26 16:40 | 45.13047 | 12.30174 | 25059 ft | 457 kts | 103° |
| 2026-04-26 16:40 | 45.12252 | 12.34602 | 25377 ft | 459 kts | 103° |
| 2026-04-26 16:40 | 45.11463 | 12.38992 | 25680 ft | 461 kts | 103° |
| 2026-04-26 16:40 | 45.10677 | 12.43352 | 25963 ft | 464 kts | 103° |
| 2026-04-26 16:41 | 45.09875 | 12.47786 | 26256 ft | 466 kts | 103° |
| 2026-04-26 16:41 | 45.09066 | 12.52241 | 26540 ft | 469 kts | 103° |
| 2026-04-26 16:41 | 45.08251 | 12.56722 | 26827 ft | 471 kts | 103° |
| 2026-04-26 16:41 | 45.07433 | 12.61220 | 27115 ft | 473 kts | 103° |
| 2026-04-26 16:42 | 45.06608 | 12.65735 | 27389 ft | 475 kts | 103° |
| 2026-04-26 16:42 | 45.05778 | 12.70256 | 27673 ft | 477 kts | 104° |
| 2026-04-26 16:42 | 45.04940 | 12.74814 | 27974 ft | 480 kts | 103° |
| 2026-04-26 16:42 | 45.04109 | 12.79335 | 28264 ft | 482 kts | 103° |
| 2026-04-26 16:43 | 45.03257 | 12.83967 | 28623 ft | 482 kts | 104° |
| 2026-04-26 16:43 | 45.02410 | 12.88555 | 29031 ft | 481 kts | 104° |
| 2026-04-26 16:43 | 45.01562 | 12.93124 | 29430 ft | 480 kts | 104° |
| 2026-04-26 16:43 | 45.00710 | 12.97699 | 29843 ft | 480 kts | 104° |
| 2026-04-26 16:44 | 44.99861 | 13.02259 | 30211 ft | 479 kts | 104° |
| 2026-04-26 16:44 | 44.98931 | 13.06769 | 30547 ft | 479 kts | 109° |
| 2026-04-26 16:44 | 44.97587 | 13.11074 | 30883 ft | 478 kts | 118° |
| 2026-04-26 16:44 | 44.95872 | 13.15021 | 31224 ft | 477 kts | 123° |
| 2026-04-26 16:45 | 44.94024 | 13.18977 | 31566 ft | 476 kts | 123° |
| 2026-04-26 16:45 | 44.92225 | 13.22822 | 31896 ft | 475 kts | 123° |
| 2026-04-26 16:45 | 44.90407 | 13.26713 | 32231 ft | 474 kts | 123° |
| 2026-04-26 16:45 | 44.88576 | 13.30642 | 32565 ft | 473 kts | 123° |
| 2026-04-26 16:46 | 44.86796 | 13.34466 | 32878 ft | 472 kts | 123° |
| 2026-04-26 16:46 | 44.84972 | 13.38377 | 33207 ft | 471 kts | 124° |
| 2026-04-26 16:46 | 44.83164 | 13.42245 | 33519 ft | 471 kts | 124° |
| 2026-04-26 16:46 | 44.81363 | 13.46092 | 33837 ft | 470 kts | 124° |
| 2026-04-26 16:47 | 44.79566 | 13.49922 | 34143 ft | 468 kts | 124° |
| 2026-04-26 16:47 | 44.77791 | 13.53695 | 34387 ft | 468 kts | 124° |
| 2026-04-26 16:47 | 44.75969 | 13.57565 | 34624 ft | 468 kts | 124° |
| 2026-04-26 16:47 | 44.74200 | 13.61319 | 34864 ft | 467 kts | 124° |
| 2026-04-26 16:48 | 44.72403 | 13.65127 | 35045 ft | 468 kts | 124° |
| 2026-04-26 16:48 | 44.70603 | 13.68939 | 35093 ft | 468 kts | 124° |
| 2026-04-26 16:48 | 44.67026 | 13.76503 | 35095 ft | 462 kts | 124° |
| 2026-04-26 16:49 | 44.63459 | 13.84030 | 35095 ft | 464 kts | 124° |
| 2026-04-26 16:49 | 44.59871 | 13.91572 | 35096 ft | 465 kts | 124° |
| 2026-04-26 16:50 | 44.56269 | 13.99127 | 35099 ft | 467 kts | 124° |
| 2026-04-26 16:50 | 44.52653 | 14.06693 | 35106 ft | 467 kts | 124° |
| 2026-04-26 16:51 | 44.49029 | 14.14266 | 35098 ft | 469 kts | 124° |
| 2026-04-26 16:51 | 44.45383 | 14.21839 | 35108 ft | 469 kts | 124° |
| 2026-04-26 16:52 | 44.42936 | 14.26905 | 35113 ft | 470 kts | 124° |
| 2026-04-26 16:52 | 44.38060 | 14.37004 | 35121 ft | 470 kts | 124° |
| 2026-04-26 16:53 | 44.34390 | 14.44576 | 35123 ft | 471 kts | 124° |
| 2026-04-26 16:53 | 44.30702 | 14.52151 | 35121 ft | 471 kts | 125° |
| 2026-04-26 16:54 | 44.27013 | 14.59715 | 35126 ft | 471 kts | 124° |
| 2026-04-26 16:54 | 44.23326 | 14.67277 | 35118 ft | 471 kts | 125° |
| 2026-04-26 16:55 | 44.19634 | 14.74828 | 35119 ft | 472 kts | 125° |
| 2026-04-26 16:55 | 44.15930 | 14.82376 | 35125 ft | 472 kts | 125° |
| 2026-04-26 16:56 | 44.10353 | 14.93678 | 35128 ft | 472 kts | 125° |
| 2026-04-26 16:57 | 44.06640 | 15.01197 | 35123 ft | 472 kts | 125° |
| 2026-04-26 16:57 | 44.01062 | 15.12464 | 35115 ft | 471 kts | 125° |
| 2026-04-26 16:58 | 43.98603 | 15.17430 | 35115 ft | 471 kts | 125° |
| 2026-04-26 16:58 | 43.93715 | 15.27240 | 35087 ft | 455 kts | 124° |
| 2026-04-26 16:59 | 43.91912 | 15.30839 | 35091 ft | 453 kts | 124° |
| 2026-04-26 17:00 | 43.85341 | 15.43947 | 35078 ft | 452 kts | 124° |
| 2026-04-26 17:00 | 43.79369 | 15.55819 | 35091 ft | 452 kts | 124° |
| 2026-04-26 17:01 | 43.76350 | 15.61795 | 35096 ft | 452 kts | 124° |
| 2026-04-26 17:01 | 43.72740 | 15.68933 | 35095 ft | 453 kts | 124° |
| 2026-04-26 17:02 | 43.69128 | 15.76057 | 35096 ft | 453 kts | 124° |
| 2026-04-26 17:02 | 43.65514 | 15.83178 | 35100 ft | 453 kts | 124° |
| 2026-04-26 17:03 | 43.61894 | 15.90284 | 35099 ft | 453 kts | 124° |
| 2026-04-26 17:03 | 43.58255 | 15.97390 | 35096 ft | 453 kts | 124° |
| 2026-04-26 17:04 | 43.54632 | 16.04475 | 35086 ft | 452 kts | 124° |
| 2026-04-26 17:04 | 43.51028 | 16.11521 | 35077 ft | 453 kts | 124° |
| 2026-04-26 17:05 | 43.47346 | 16.18669 | 35081 ft | 455 kts | 124° |
| 2026-04-26 17:05 | 43.43705 | 16.25727 | 35087 ft | 454 kts | 124° |
| 2026-04-26 17:06 | 43.40065 | 16.32792 | 35077 ft | 451 kts | 125° |
| 2026-04-26 17:06 | 43.36417 | 16.39815 | 35084 ft | 451 kts | 124° |
| 2026-04-26 17:07 | 43.32768 | 16.46845 | 35090 ft | 452 kts | 124° |
| 2026-04-26 17:07 | 43.29105 | 16.53881 | 35101 ft | 453 kts | 124° |
| 2026-04-26 17:08 | 43.25434 | 16.60913 | 35102 ft | 454 kts | 125° |
| 2026-04-26 17:08 | 43.21750 | 16.67956 | 35115 ft | 454 kts | 124° |
| 2026-04-26 17:09 | 43.18697 | 16.73796 | 35097 ft | 452 kts | 124° |
| 2026-04-26 17:09 | 43.14432 | 16.81935 | 35088 ft | 450 kts | 124° |
| 2026-04-26 17:10 | 43.10758 | 16.88897 | 35088 ft | 452 kts | 124° |
| 2026-04-26 17:10 | 43.07070 | 16.95863 | 35095 ft | 452 kts | 124° |
| 2026-04-26 17:11 | 43.03381 | 17.02829 | 35107 ft | 453 kts | 124° |
| 2026-04-26 17:11 | 42.99808 | 17.09571 | 35093 ft | 452 kts | 124° |
| 2026-04-26 17:12 | 42.94295 | 17.19960 | 35072 ft | 451 kts | 125° |
| 2026-04-26 17:13 | 42.88735 | 17.30348 | 35081 ft | 451 kts | 124° |
| 2026-04-26 17:14 | 42.83206 | 17.40685 | 35061 ft | 450 kts | 125° |
| 2026-04-26 17:14 | 42.77632 | 17.51032 | 35078 ft | 453 kts | 124° |
| 2026-04-26 17:15 | 42.72023 | 17.61411 | 35094 ft | 454 kts | 125° |
| 2026-04-26 17:16 | 42.68272 | 17.68334 | 35104 ft | 455 kts | 125° |
| 2026-04-26 17:16 | 42.64519 | 17.75267 | 35115 ft | 455 kts | 125° |
| 2026-04-26 17:17 | 42.60789 | 17.82144 | 35103 ft | 454 kts | 124° |
| 2026-04-26 17:17 | 42.57034 | 17.89047 | 35106 ft | 455 kts | 124° |
| 2026-04-26 17:18 | 42.53273 | 17.95940 | 35109 ft | 455 kts | 125° |
| 2026-04-26 17:18 | 42.49501 | 18.02825 | 35105 ft | 455 kts | 125° |
| 2026-04-26 17:19 | 42.43830 | 18.13157 | 35108 ft | 455 kts | 125° |
| 2026-04-26 17:19 | 42.40044 | 18.20034 | 35118 ft | 457 kts | 125° |
| 2026-04-26 17:20 | 42.36885 | 18.25760 | 35115 ft | 457 kts | 125° |
| 2026-04-26 17:20 | 42.32442 | 18.33808 | 35114 ft | 456 kts | 125° |
| 2026-04-26 17:21 | 42.28643 | 18.40662 | 35111 ft | 455 kts | 125° |
| 2026-04-26 17:21 | 42.26746 | 18.44074 | 34959 ft | 455 kts | 127° |
| 2026-04-26 17:21 | 42.24828 | 18.47521 | 34708 ft | 462 kts | 127° |
| 2026-04-26 17:22 | 42.22881 | 18.51006 | 33946 ft | 469 kts | 127° |
| 2026-04-26 17:22 | 42.20929 | 18.54499 | 33067 ft | 474 kts | 127° |
| 2026-04-26 17:22 | 42.18914 | 18.58106 | 32187 ft | 478 kts | 127° |
| 2026-04-26 17:22 | 42.16932 | 18.61658 | 31319 ft | 482 kts | 127° |
| 2026-04-26 17:23 | 42.14882 | 18.65332 | 30359 ft | 487 kts | 127° |
| 2026-04-26 17:23 | 42.12852 | 18.68965 | 29266 ft | 493 kts | 127° |
| 2026-04-26 17:23 | 42.10789 | 18.72652 | 28382 ft | 492 kts | 127° |
| 2026-04-26 17:23 | 42.08745 | 18.76298 | 27859 ft | 485 kts | 127° |
| 2026-04-26 17:24 | 42.06711 | 18.79915 | 27182 ft | 482 kts | 127° |
| 2026-04-26 17:24 | 42.04702 | 18.83489 | 26537 ft | 477 kts | 128° |
| 2026-04-26 17:24 | 42.02707 | 18.87044 | 25893 ft | 473 kts | 128° |
| 2026-04-26 17:24 | 42.00732 | 18.90557 | 25262 ft | 469 kts | 128° |
| 2026-04-26 17:25 | 41.98764 | 18.94041 | 24633 ft | 467 kts | 128° |
| 2026-04-26 17:25 | 41.96813 | 18.97494 | 24228 ft | 459 kts | 128° |
| 2026-04-26 17:25 | 41.94887 | 19.00896 | 24044 ft | 455 kts | 128° |
| 2026-04-26 17:25 | 41.92972 | 19.04267 | 24084 ft | 455 kts | 128° |
| 2026-04-26 17:26 | 41.91047 | 19.07653 | 24082 ft | 455 kts | 128° |
| 2026-04-26 17:26 | 41.89155 | 19.10974 | 23709 ft | 456 kts | 129° |
| 2026-04-26 17:26 | 41.87210 | 19.14386 | 22528 ft | 464 kts | 129° |
| 2026-04-26 17:26 | 41.85257 | 19.17816 | 21735 ft | 462 kts | 129° |
| 2026-04-26 17:27 | 41.83318 | 19.21223 | 21066 ft | 457 kts | 128° |
| 2026-04-26 17:27 | 41.81408 | 19.24582 | 20339 ft | 448 kts | 128° |
| 2026-04-26 17:27 | 41.79529 | 19.27882 | 19356 ft | 441 kts | 128° |
| 2026-04-26 17:27 | 41.77680 | 19.31123 | 18433 ft | 434 kts | 128° |
| 2026-04-26 17:28 | 41.75825 | 19.34276 | 17547 ft | 425 kts | 130° |
| 2026-04-26 17:28 | 41.73981 | 19.37259 | 17104 ft | 408 kts | 131° |
| 2026-04-26 17:28 | 41.72176 | 19.40097 | 16593 ft | 393 kts | 131° |
| 2026-04-26 17:28 | 41.70423 | 19.42824 | 16096 ft | 379 kts | 131° |
| 2026-04-26 17:29 | 41.68755 | 19.45428 | 15606 ft | 367 kts | 131° |
| 2026-04-26 17:29 | 41.67646 | 19.47172 | 15278 ft | 363 kts | 131° |
| 2026-04-26 17:29 | 41.65370 | 19.50422 | 14614 ft | 360 kts | 141° |
| 2026-04-26 17:29 | 41.63321 | 19.52288 | 14102 ft | 355 kts | 153° |
| 2026-04-26 17:30 | 41.61035 | 19.53540 | 13556 ft | 354 kts | 165° |
| 2026-04-26 17:30 | 41.58619 | 19.54129 | 13148 ft | 355 kts | 175° |
| 2026-04-26 17:30 | 41.56096 | 19.54445 | 13061 ft | 368 kts | 175° |
| 2026-04-26 17:30 | 41.53531 | 19.54790 | 13085 ft | 372 kts | 174° |
| 2026-04-26 17:31 | 41.50945 | 19.55151 | 13086 ft | 373 kts | 174° |
| 2026-04-26 17:31 | 41.48371 | 19.55511 | 13080 ft | 368 kts | 174° |
| 2026-04-26 17:31 | 41.45887 | 19.55857 | 13079 ft | 349 kts | 174° |
| 2026-04-26 17:31 | 41.43534 | 19.56181 | 13082 ft | 332 kts | 174° |
| 2026-04-26 17:32 | 41.41296 | 19.56488 | 13083 ft | 315 kts | 174° |
| 2026-04-26 17:32 | 41.39144 | 19.56782 | 13086 ft | 309 kts | 174° |
| 2026-04-26 17:32 | 41.37009 | 19.57070 | 13087 ft | 309 kts | 174° |
| 2026-04-26 17:32 | 41.34874 | 19.57358 | 13055 ft | 308 kts | 174° |
| 2026-04-26 17:33 | 41.32750 | 19.57644 | 12390 ft | 305 kts | 174° |
| 2026-04-26 17:33 | 41.30640 | 19.57929 | 11562 ft | 304 kts | 173° |
| 2026-04-26 17:33 | 41.28541 | 19.58214 | 10751 ft | 301 kts | 173° |
| 2026-04-26 17:34 | 41.24418 | 19.58776 | 9241 ft | 295 kts | 172° |
| 2026-04-26 17:34 | 41.22388 | 19.59055 | 8445 ft | 292 kts | 172° |
| 2026-04-26 17:34 | 41.20399 | 19.59455 | 7675 ft | 286 kts | 159° |
| 2026-04-26 17:34 | 41.18742 | 19.60782 | 6967 ft | 276 kts | 129° |
| 2026-04-26 17:35 | 41.17800 | 19.62887 | 6492 ft | 259 kts | 104° |
| 2026-04-26 17:35 | 41.17646 | 19.65168 | 6082 ft | 242 kts | 82° |
| 2026-04-26 17:35 | 41.17817 | 19.67359 | 5719 ft | 240 kts | 82° |
| 2026-04-26 17:35 | 41.17986 | 19.69565 | 5374 ft | 243 kts | 83° |
| 2026-04-26 17:36 | 41.18180 | 19.71801 | 5002 ft | 244 kts | 76° |
| 2026-04-26 17:36 | 41.18967 | 19.73733 | 4639 ft | 239 kts | 40° |
| 2026-04-26 17:36 | 41.20411 | 19.74713 | 4293 ft | 233 kts | 7° |
| 2026-04-26 17:36 | 41.22024 | 19.74537 | 3959 ft | 231 kts | 346° |
| 2026-04-26 17:37 | 41.23581 | 19.74184 | 3648 ft | 229 kts | 353° |
| 2026-04-26 17:37 | 41.25153 | 19.73994 | 3323 ft | 224 kts | 355° |
| 2026-04-26 17:37 | 41.26692 | 19.73846 | 3008 ft | 219 kts | 355° |
| 2026-04-26 17:38 | 41.29644 | 19.73547 | 2465 ft | 208 kts | 355° |
| 2026-04-26 17:38 | 41.31083 | 19.73381 | 2203 ft | 206 kts | 354° |
| 2026-04-26 17:38 | 41.32466 | 19.73211 | 1938 ft | 190 kts | 354° |
| 2026-04-26 17:38 | 41.33738 | 19.73052 | 1650 ft | 176 kts | 354° |
| 2026-04-26 17:39 | 41.34907 | 19.72902 | 1371 ft | 161 kts | 354° |
| 2026-04-26 17:39 | 41.35966 | 19.72759 | 1116 ft | 147 kts | 353° |
| 2026-04-26 17:39 | 41.36975 | 19.72629 | 901 ft | 145 kts | 354° |
| 2026-04-26 17:39 | 41.37985 | 19.72508 | 688 ft | 145 kts | 354° |
| 2026-04-26 17:40 | 41.38998 | 19.72388 | 446 ft | 146 kts | 352° |
| 2026-04-26 17:40 | 41.39338 | 19.72340 | 375 ft | 145 kts | 352° |
| 2026-04-26 17:40 | 41.40979 | 19.72125 | 136 ft | 128 kts | 352° |
| 2026-04-26 17:40 | 41.41606 | 19.72040 | 125 ft | 40 kts | 355° |
| 2026-04-26 17:41 | 41.41782 | 19.72016 | 124 ft | 14 kts | 353° |
| 2026-04-26 17:41 | 41.41847 | 19.72006 | 121 ft | 9 kts | 349° |
| 2026-04-26 17:41 | 41.41879 | 19.71947 | 123 ft | 9 kts | 276° |
| 2026-04-26 17:41 | 41.41875 | 19.71873 | 124 ft | 8 kts | 264° |
| 2026-04-26 17:42 | 41.41869 | 19.71805 | 124 ft | 8 kts | 264° |
| 2026-04-26 17:42 | 41.41862 | 19.71725 | 121 ft | 9 kts | 263° |
| 2026-04-26 17:42 | 41.41856 | 19.71650 | 120 ft | 6 kts | 266° |
| 2026-04-26 17:42 | 41.41878 | 19.71599 | 120 ft | 7 kts | 326° |
| 2026-04-26 17:43 | 41.41911 | 19.71584 | 122 ft | 2 kts | 331° |
| 2026-04-26 17:43 | 41.41912 | 19.71561 | 123 ft | 3 kts | 270° |
| 2026-04-26 17:43 | 41.41911 | 19.71539 | 123 ft | 2 kts | 265° |
| 2026-04-26 17:43 | 41.41910 | 19.71526 | 123 ft | 1 kts | 264° |
| 2026-04-26 17:44 | 41.41910 | 19.71524 | 123 ft | 0 kts | 264° |